<?xml version="1.0" encoding="UTF-8" standalone="no" ?>
<gpx xmlns="http://www.topografix.com/GPX/1/1" xmlns:xsi="http://www.w3.org/2001/XMLSchema-instance" xsi:schemaLocation="http://www.topografix.com/GPX/1/1 http://www.topografix.com/GPX/1/1/gpx.xsd" version="1.1" creator="VisuGPX - https://www.visugpx.com">
  <metadata>
    <name>Montgesoye - Cascade De Vau</name>
    <desc><![CDATA[Route created on plotaroute.com]]></desc>
  </metadata>
  <trk>
    <name><![CDATA[Montgesoye - Cascade De Vau]]></name>
    <trkseg>
      <trkpt lat="47.08133" lon="6.19356">
        <ele>361</ele>
        <time>2022-06-05T00:00:00Z</time>
      </trkpt>
      <trkpt lat="47.08136" lon="6.19366">
        <ele>361</ele>
        <time>2022-06-05T00:00:06Z</time>
      </trkpt>
      <trkpt lat="47.0814" lon="6.19376">
        <ele>361</ele>
        <time>2022-06-05T00:00:12Z</time>
      </trkpt>
      <trkpt lat="47.0815" lon="6.19413">
        <ele>362</ele>
        <time>2022-06-05T00:00:34Z</time>
      </trkpt>
      <trkpt lat="47.08156" lon="6.19442">
        <ele>362</ele>
        <time>2022-06-05T00:00:51Z</time>
      </trkpt>
      <trkpt lat="47.08159" lon="6.19464">
        <ele>362</ele>
        <time>2022-06-05T00:01:03Z</time>
      </trkpt>
      <trkpt lat="47.08162" lon="6.19482">
        <ele>363</ele>
        <time>2022-06-05T00:01:13Z</time>
      </trkpt>
      <trkpt lat="47.08164" lon="6.19498">
        <ele>363</ele>
        <time>2022-06-05T00:01:22Z</time>
      </trkpt>
      <trkpt lat="47.08167" lon="6.19541">
        <ele>363</ele>
        <time>2022-06-05T00:01:45Z</time>
      </trkpt>
      <trkpt lat="47.08167" lon="6.19548">
        <ele>363</ele>
        <time>2022-06-05T00:01:49Z</time>
      </trkpt>
      <trkpt lat="47.08165" lon="6.19556">
        <ele>363</ele>
        <time>2022-06-05T00:01:54Z</time>
      </trkpt>
      <trkpt lat="47.08166" lon="6.19577">
        <ele>363</ele>
        <time>2022-06-05T00:02:05Z</time>
      </trkpt>
      <trkpt lat="47.08166" lon="6.19587">
        <ele>363</ele>
        <time>2022-06-05T00:02:11Z</time>
      </trkpt>
      <trkpt lat="47.08165" lon="6.196">
        <ele>363</ele>
        <time>2022-06-05T00:02:18Z</time>
      </trkpt>
      <trkpt lat="47.08166" lon="6.19614">
        <ele>363</ele>
        <time>2022-06-05T00:02:26Z</time>
      </trkpt>
      <trkpt lat="47.08166" lon="6.19631">
        <ele>363</ele>
        <time>2022-06-05T00:02:35Z</time>
      </trkpt>
      <trkpt lat="47.08167" lon="6.19653">
        <ele>363</ele>
        <time>2022-06-05T00:02:47Z</time>
      </trkpt>
      <trkpt lat="47.08168" lon="6.1967">
        <ele>364</ele>
        <time>2022-06-05T00:02:56Z</time>
      </trkpt>
      <trkpt lat="47.0817" lon="6.19695">
        <ele>365</ele>
        <time>2022-06-05T00:03:10Z</time>
      </trkpt>
      <trkpt lat="47.08173" lon="6.19765">
        <ele>369</ele>
        <time>2022-06-05T00:03:48Z</time>
      </trkpt>
      <trkpt lat="47.08173" lon="6.19788">
        <ele>370</ele>
        <time>2022-06-05T00:04:01Z</time>
      </trkpt>
      <trkpt lat="47.08175" lon="6.19835">
        <ele>374</ele>
        <time>2022-06-05T00:04:27Z</time>
      </trkpt>
      <trkpt lat="47.08176" lon="6.1987">
        <ele>374</ele>
        <time>2022-06-05T00:04:46Z</time>
      </trkpt>
      <trkpt lat="47.08176" lon="6.19907">
        <ele>374</ele>
        <time>2022-06-05T00:05:06Z</time>
      </trkpt>
      <trkpt lat="47.08177" lon="6.19917">
        <ele>375</ele>
        <time>2022-06-05T00:05:11Z</time>
      </trkpt>
      <trkpt lat="47.08179" lon="6.19931">
        <ele>375</ele>
        <time>2022-06-05T00:05:19Z</time>
      </trkpt>
      <trkpt lat="47.08182" lon="6.19944">
        <ele>377</ele>
        <time>2022-06-05T00:05:27Z</time>
      </trkpt>
      <trkpt lat="47.08186" lon="6.19957">
        <ele>378</ele>
        <time>2022-06-05T00:05:34Z</time>
      </trkpt>
      <trkpt lat="47.0819" lon="6.19972">
        <ele>380</ele>
        <time>2022-06-05T00:05:43Z</time>
      </trkpt>
      <trkpt lat="47.08194" lon="6.20006">
        <ele>382</ele>
        <time>2022-06-05T00:06:02Z</time>
      </trkpt>
      <trkpt lat="47.08196" lon="6.20019">
        <ele>383</ele>
        <time>2022-06-05T00:06:09Z</time>
      </trkpt>
      <trkpt lat="47.08197" lon="6.20034">
        <ele>384</ele>
        <time>2022-06-05T00:06:18Z</time>
      </trkpt>
      <trkpt lat="47.08192" lon="6.2008">
        <ele>382</ele>
        <time>2022-06-05T00:06:43Z</time>
      </trkpt>
      <trkpt lat="47.0819" lon="6.20124">
        <ele>382</ele>
        <time>2022-06-05T00:07:07Z</time>
      </trkpt>
      <trkpt lat="47.08188" lon="6.20137">
        <ele>381</ele>
        <time>2022-06-05T00:07:14Z</time>
      </trkpt>
      <trkpt lat="47.08186" lon="6.20156">
        <ele>381</ele>
        <time>2022-06-05T00:07:25Z</time>
      </trkpt>
      <trkpt lat="47.08184" lon="6.20166">
        <ele>380</ele>
        <time>2022-06-05T00:07:31Z</time>
      </trkpt>
      <trkpt lat="47.08181" lon="6.20187">
        <ele>379</ele>
        <time>2022-06-05T00:07:42Z</time>
      </trkpt>
      <trkpt lat="47.0818" lon="6.20199">
        <ele>378</ele>
        <time>2022-06-05T00:07:49Z</time>
      </trkpt>
      <trkpt lat="47.0818" lon="6.20212">
        <ele>378</ele>
        <time>2022-06-05T00:07:56Z</time>
      </trkpt>
      <trkpt lat="47.08183" lon="6.20268">
        <ele>378</ele>
        <time>2022-06-05T00:08:27Z</time>
      </trkpt>
      <trkpt lat="47.08183" lon="6.20278">
        <ele>378</ele>
        <time>2022-06-05T00:08:32Z</time>
      </trkpt>
      <trkpt lat="47.08182" lon="6.20285">
        <ele>377</ele>
        <time>2022-06-05T00:08:36Z</time>
      </trkpt>
      <trkpt lat="47.08167" lon="6.20317">
        <ele>373</ele>
        <time>2022-06-05T00:08:57Z</time>
      </trkpt>
      <trkpt lat="47.08164" lon="6.20327">
        <ele>374</ele>
        <time>2022-06-05T00:09:03Z</time>
      </trkpt>
      <trkpt lat="47.08161" lon="6.20333">
        <ele>375</ele>
        <time>2022-06-05T00:09:07Z</time>
      </trkpt>
      <trkpt lat="47.08157" lon="6.20343">
        <ele>376</ele>
        <time>2022-06-05T00:09:14Z</time>
      </trkpt>
      <trkpt lat="47.08152" lon="6.20351">
        <ele>377</ele>
        <time>2022-06-05T00:09:19Z</time>
      </trkpt>
      <trkpt lat="47.08145" lon="6.20358">
        <ele>379</ele>
        <time>2022-06-05T00:09:26Z</time>
      </trkpt>
      <trkpt lat="47.08139" lon="6.20366">
        <ele>381</ele>
        <time>2022-06-05T00:09:33Z</time>
      </trkpt>
      <trkpt lat="47.08127" lon="6.20381">
        <ele>384</ele>
        <time>2022-06-05T00:09:45Z</time>
      </trkpt>
      <trkpt lat="47.08124" lon="6.20414">
        <ele>384</ele>
        <time>2022-06-05T00:10:04Z</time>
      </trkpt>
      <trkpt lat="47.0813" lon="6.20437">
        <ele>383</ele>
        <time>2022-06-05T00:10:17Z</time>
      </trkpt>
      <trkpt lat="47.08142" lon="6.20526">
        <ele>382</ele>
        <time>2022-06-05T00:11:06Z</time>
      </trkpt>
      <trkpt lat="47.08136" lon="6.20603">
        <ele>387</ele>
        <time>2022-06-05T00:11:49Z</time>
      </trkpt>
      <trkpt lat="47.08133" lon="6.20699">
        <ele>389</ele>
        <time>2022-06-05T00:12:41Z</time>
      </trkpt>
      <trkpt lat="47.08139" lon="6.20772">
        <ele>388</ele>
        <time>2022-06-05T00:13:21Z</time>
      </trkpt>
      <trkpt lat="47.08147" lon="6.20797">
        <ele>385</ele>
        <time>2022-06-05T00:13:36Z</time>
      </trkpt>
      <trkpt lat="47.08151" lon="6.20806">
        <ele>384</ele>
        <time>2022-06-05T00:13:42Z</time>
      </trkpt>
      <trkpt lat="47.08154" lon="6.20816">
        <ele>383</ele>
        <time>2022-06-05T00:13:48Z</time>
      </trkpt>
      <trkpt lat="47.08156" lon="6.20825">
        <ele>382</ele>
        <time>2022-06-05T00:13:53Z</time>
      </trkpt>
      <trkpt lat="47.08157" lon="6.20832">
        <ele>382</ele>
        <time>2022-06-05T00:13:57Z</time>
      </trkpt>
      <trkpt lat="47.08159" lon="6.2084">
        <ele>381</ele>
        <time>2022-06-05T00:14:02Z</time>
      </trkpt>
      <trkpt lat="47.08159" lon="6.20878">
        <ele>381</ele>
        <time>2022-06-05T00:14:23Z</time>
      </trkpt>
      <trkpt lat="47.08157" lon="6.2092">
        <ele>382</ele>
        <time>2022-06-05T00:14:46Z</time>
      </trkpt>
      <trkpt lat="47.08156" lon="6.20937">
        <ele>383</ele>
        <time>2022-06-05T00:14:55Z</time>
      </trkpt>
      <trkpt lat="47.08155" lon="6.20947">
        <ele>385</ele>
        <time>2022-06-05T00:15:01Z</time>
      </trkpt>
      <trkpt lat="47.08155" lon="6.20955">
        <ele>385</ele>
        <time>2022-06-05T00:15:05Z</time>
      </trkpt>
      <trkpt lat="47.08156" lon="6.20962">
        <ele>385</ele>
        <time>2022-06-05T00:15:09Z</time>
      </trkpt>
      <trkpt lat="47.08158" lon="6.20969">
        <ele>385</ele>
        <time>2022-06-05T00:15:13Z</time>
      </trkpt>
      <trkpt lat="47.08161" lon="6.20983">
        <ele>384</ele>
        <time>2022-06-05T00:15:21Z</time>
      </trkpt>
      <trkpt lat="47.08166" lon="6.20999">
        <ele>382</ele>
        <time>2022-06-05T00:15:31Z</time>
      </trkpt>
      <trkpt lat="47.08171" lon="6.21017">
        <ele>385</ele>
        <time>2022-06-05T00:15:41Z</time>
      </trkpt>
      <trkpt lat="47.08176" lon="6.21031">
        <ele>387</ele>
        <time>2022-06-05T00:15:50Z</time>
      </trkpt>
      <trkpt lat="47.08182" lon="6.21055">
        <ele>390</ele>
        <time>2022-06-05T00:16:04Z</time>
      </trkpt>
      <trkpt lat="47.08184" lon="6.21065">
        <ele>391</ele>
        <time>2022-06-05T00:16:09Z</time>
      </trkpt>
      <trkpt lat="47.08185" lon="6.21077">
        <ele>392</ele>
        <time>2022-06-05T00:16:16Z</time>
      </trkpt>
      <trkpt lat="47.08187" lon="6.21091">
        <ele>394</ele>
        <time>2022-06-05T00:16:24Z</time>
      </trkpt>
      <trkpt lat="47.0819" lon="6.21103">
        <ele>395</ele>
        <time>2022-06-05T00:16:31Z</time>
      </trkpt>
      <trkpt lat="47.08191" lon="6.21111">
        <ele>395</ele>
        <time>2022-06-05T00:16:35Z</time>
      </trkpt>
      <trkpt lat="47.08197" lon="6.21131">
        <ele>396</ele>
        <time>2022-06-05T00:16:47Z</time>
      </trkpt>
      <trkpt lat="47.08202" lon="6.21144">
        <ele>396</ele>
        <time>2022-06-05T00:16:55Z</time>
      </trkpt>
      <trkpt lat="47.08215" lon="6.21183">
        <ele>395</ele>
        <time>2022-06-05T00:17:19Z</time>
      </trkpt>
      <trkpt lat="47.08219" lon="6.2119">
        <ele>394</ele>
        <time>2022-06-05T00:17:24Z</time>
      </trkpt>
      <trkpt lat="47.08224" lon="6.21195">
        <ele>393</ele>
        <time>2022-06-05T00:17:29Z</time>
      </trkpt>
      <trkpt lat="47.0823" lon="6.21203">
        <ele>393</ele>
        <time>2022-06-05T00:17:35Z</time>
      </trkpt>
      <trkpt lat="47.08234" lon="6.21209">
        <ele>392</ele>
        <time>2022-06-05T00:17:40Z</time>
      </trkpt>
      <trkpt lat="47.0824" lon="6.21221">
        <ele>391</ele>
        <time>2022-06-05T00:17:48Z</time>
      </trkpt>
      <trkpt lat="47.08245" lon="6.2123">
        <ele>389</ele>
        <time>2022-06-05T00:17:54Z</time>
      </trkpt>
      <trkpt lat="47.08248" lon="6.21239">
        <ele>389</ele>
        <time>2022-06-05T00:18:00Z</time>
      </trkpt>
      <trkpt lat="47.08252" lon="6.21263">
        <ele>391</ele>
        <time>2022-06-05T00:18:13Z</time>
      </trkpt>
      <trkpt lat="47.08254" lon="6.21277">
        <ele>394</ele>
        <time>2022-06-05T00:18:21Z</time>
      </trkpt>
      <trkpt lat="47.08257" lon="6.21289">
        <ele>396</ele>
        <time>2022-06-05T00:18:28Z</time>
      </trkpt>
      <trkpt lat="47.08266" lon="6.21308">
        <ele>399</ele>
        <time>2022-06-05T00:18:41Z</time>
      </trkpt>
      <trkpt lat="47.08283" lon="6.21336">
        <ele>399</ele>
        <time>2022-06-05T00:19:01Z</time>
      </trkpt>
      <trkpt lat="47.08302" lon="6.21359">
        <ele>400</ele>
        <time>2022-06-05T00:19:21Z</time>
      </trkpt>
      <trkpt lat="47.08331" lon="6.21385">
        <ele>398</ele>
        <time>2022-06-05T00:19:48Z</time>
      </trkpt>
      <trkpt lat="47.08336" lon="6.21393">
        <ele>399</ele>
        <time>2022-06-05T00:19:54Z</time>
      </trkpt>
      <trkpt lat="47.08341" lon="6.21402">
        <ele>400</ele>
        <time>2022-06-05T00:20:01Z</time>
      </trkpt>
      <trkpt lat="47.08347" lon="6.21414">
        <ele>401</ele>
        <time>2022-06-05T00:20:09Z</time>
      </trkpt>
      <trkpt lat="47.08354" lon="6.21426">
        <ele>404</ele>
        <time>2022-06-05T00:20:17Z</time>
      </trkpt>
      <trkpt lat="47.08364" lon="6.21434">
        <ele>405</ele>
        <time>2022-06-05T00:20:26Z</time>
      </trkpt>
      <trkpt lat="47.08374" lon="6.21439">
        <ele>405</ele>
        <time>2022-06-05T00:20:35Z</time>
      </trkpt>
      <trkpt lat="47.0839" lon="6.21446">
        <ele>403</ele>
        <time>2022-06-05T00:20:48Z</time>
      </trkpt>
      <trkpt lat="47.08401" lon="6.21455">
        <ele>403</ele>
        <time>2022-06-05T00:20:58Z</time>
      </trkpt>
      <trkpt lat="47.08408" lon="6.21459">
        <ele>402</ele>
        <time>2022-06-05T00:21:04Z</time>
      </trkpt>
      <trkpt lat="47.0842" lon="6.21469">
        <ele>402</ele>
        <time>2022-06-05T00:21:15Z</time>
      </trkpt>
      <trkpt lat="47.08428" lon="6.21478">
        <ele>404</ele>
        <time>2022-06-05T00:21:23Z</time>
      </trkpt>
      <trkpt lat="47.08431" lon="6.21482">
        <ele>404</ele>
        <time>2022-06-05T00:21:27Z</time>
      </trkpt>
      <trkpt lat="47.08434" lon="6.21484">
        <ele>404</ele>
        <time>2022-06-05T00:21:29Z</time>
      </trkpt>
      <trkpt lat="47.08437" lon="6.21485">
        <ele>404</ele>
        <time>2022-06-05T00:21:32Z</time>
      </trkpt>
      <trkpt lat="47.08441" lon="6.21485">
        <ele>404</ele>
        <time>2022-06-05T00:21:35Z</time>
      </trkpt>
      <trkpt lat="47.0845" lon="6.21487">
        <ele>404</ele>
        <time>2022-06-05T00:21:42Z</time>
      </trkpt>
      <trkpt lat="47.08457" lon="6.21488">
        <ele>404</ele>
        <time>2022-06-05T00:21:48Z</time>
      </trkpt>
      <trkpt lat="47.08475" lon="6.21488">
        <ele>404</ele>
        <time>2022-06-05T00:22:02Z</time>
      </trkpt>
      <trkpt lat="47.085" lon="6.21506">
        <ele>401</ele>
        <time>2022-06-05T00:22:25Z</time>
      </trkpt>
      <trkpt lat="47.08527" lon="6.21543">
        <ele>410</ele>
        <time>2022-06-05T00:22:54Z</time>
      </trkpt>
      <trkpt lat="47.08559" lon="6.21578">
        <ele>412</ele>
        <time>2022-06-05T00:23:26Z</time>
      </trkpt>
      <trkpt lat="47.08598" lon="6.21588">
        <ele>412</ele>
        <time>2022-06-05T00:23:58Z</time>
      </trkpt>
      <trkpt lat="47.08675" lon="6.21605">
        <ele>415</ele>
        <time>2022-06-05T00:25:00Z</time>
      </trkpt>
      <trkpt lat="47.08705" lon="6.21599">
        <ele>413</ele>
        <time>2022-06-05T00:25:25Z</time>
      </trkpt>
      <trkpt lat="47.0874" lon="6.21587">
        <ele>410</ele>
        <time>2022-06-05T00:25:54Z</time>
      </trkpt>
      <trkpt lat="47.08775" lon="6.21587">
        <ele>410</ele>
        <time>2022-06-05T00:26:22Z</time>
      </trkpt>
      <trkpt lat="47.08808" lon="6.21607">
        <ele>416</ele>
        <time>2022-06-05T00:26:50Z</time>
      </trkpt>
      <trkpt lat="47.08879" lon="6.21627">
        <ele>420</ele>
        <time>2022-06-05T00:27:48Z</time>
      </trkpt>
      <trkpt lat="47.08957" lon="6.21657">
        <ele>418</ele>
        <time>2022-06-05T00:28:53Z</time>
      </trkpt>
      <trkpt lat="47.0902" lon="6.21669">
        <ele>413</ele>
        <time>2022-06-05T00:29:44Z</time>
      </trkpt>
      <trkpt lat="47.0909" lon="6.21714">
        <ele>418</ele>
        <time>2022-06-05T00:30:45Z</time>
      </trkpt>
      <trkpt lat="47.09151" lon="6.21778">
        <ele>424</ele>
        <time>2022-06-05T00:31:45Z</time>
      </trkpt>
      <trkpt lat="47.09197" lon="6.21809">
        <ele>427</ele>
        <time>2022-06-05T00:32:26Z</time>
      </trkpt>
      <trkpt lat="47.09288" lon="6.21867">
        <ele>432</ele>
        <time>2022-06-05T00:33:45Z</time>
      </trkpt>
      <trkpt lat="47.09329" lon="6.21891">
        <ele>429</ele>
        <time>2022-06-05T00:34:20Z</time>
      </trkpt>
      <trkpt lat="47.09343" lon="6.21892">
        <ele>430</ele>
        <time>2022-06-05T00:34:32Z</time>
      </trkpt>
      <trkpt lat="47.09394" lon="6.2189">
        <ele>434</ele>
        <time>2022-06-05T00:35:13Z</time>
      </trkpt>
      <trkpt lat="47.09439" lon="6.21881">
        <ele>439</ele>
        <time>2022-06-05T00:35:49Z</time>
      </trkpt>
      <trkpt lat="47.09462" lon="6.21874">
        <ele>442</ele>
        <time>2022-06-05T00:36:08Z</time>
      </trkpt>
      <trkpt lat="47.09521" lon="6.21849">
        <ele>446</ele>
        <time>2022-06-05T00:36:57Z</time>
      </trkpt>
      <trkpt lat="47.09585" lon="6.2184">
        <ele>443</ele>
        <time>2022-06-05T00:37:49Z</time>
      </trkpt>
      <trkpt lat="47.09662" lon="6.21842">
        <ele>455</ele>
        <time>2022-06-05T00:38:50Z</time>
      </trkpt>
      <trkpt lat="47.09714" lon="6.21863">
        <ele>463</ele>
        <time>2022-06-05T00:39:33Z</time>
      </trkpt>
      <trkpt lat="47.09758" lon="6.21906">
        <ele>460</ele>
        <time>2022-06-05T00:40:16Z</time>
      </trkpt>
      <trkpt lat="47.09808" lon="6.21936">
        <ele>471</ele>
        <time>2022-06-05T00:40:59Z</time>
      </trkpt>
      <trkpt lat="47.0986" lon="6.2197">
        <ele>484</ele>
        <time>2022-06-05T00:41:45Z</time>
      </trkpt>
      <trkpt lat="47.09808" lon="6.21936">
        <ele>471</ele>
        <time>2022-06-05T00:42:30Z</time>
      </trkpt>
      <trkpt lat="47.09758" lon="6.21906">
        <ele>460</ele>
        <time>2022-06-05T00:43:14Z</time>
      </trkpt>
      <trkpt lat="47.09714" lon="6.21863">
        <ele>463</ele>
        <time>2022-06-05T00:43:56Z</time>
      </trkpt>
      <trkpt lat="47.09662" lon="6.21842">
        <ele>455</ele>
        <time>2022-06-05T00:44:39Z</time>
      </trkpt>
      <trkpt lat="47.09585" lon="6.2184">
        <ele>443</ele>
        <time>2022-06-05T00:45:41Z</time>
      </trkpt>
      <trkpt lat="47.09521" lon="6.21849">
        <ele>446</ele>
        <time>2022-06-05T00:46:32Z</time>
      </trkpt>
      <trkpt lat="47.09462" lon="6.21874">
        <ele>442</ele>
        <time>2022-06-05T00:47:22Z</time>
      </trkpt>
      <trkpt lat="47.09439" lon="6.21881">
        <ele>439</ele>
        <time>2022-06-05T00:47:41Z</time>
      </trkpt>
      <trkpt lat="47.09432" lon="6.21871">
        <ele>439</ele>
        <time>2022-06-05T00:47:48Z</time>
      </trkpt>
      <trkpt lat="47.09427" lon="6.21863">
        <ele>440</ele>
        <time>2022-06-05T00:47:54Z</time>
      </trkpt>
      <trkpt lat="47.09423" lon="6.21858">
        <ele>440</ele>
        <time>2022-06-05T00:47:58Z</time>
      </trkpt>
      <trkpt lat="47.09412" lon="6.21848">
        <ele>440</ele>
        <time>2022-06-05T00:48:09Z</time>
      </trkpt>
      <trkpt lat="47.09389" lon="6.21841">
        <ele>438</ele>
        <time>2022-06-05T00:48:28Z</time>
      </trkpt>
      <trkpt lat="47.09344" lon="6.21844">
        <ele>433</ele>
        <time>2022-06-05T00:49:04Z</time>
      </trkpt>
      <trkpt lat="47.09298" lon="6.21838">
        <ele>430</ele>
        <time>2022-06-05T00:49:41Z</time>
      </trkpt>
      <trkpt lat="47.09271" lon="6.21801">
        <ele>430</ele>
        <time>2022-06-05T00:50:10Z</time>
      </trkpt>
      <trkpt lat="47.09239" lon="6.21766">
        <ele>426</ele>
        <time>2022-06-05T00:50:42Z</time>
      </trkpt>
      <trkpt lat="47.09234" lon="6.21742">
        <ele>426</ele>
        <time>2022-06-05T00:50:56Z</time>
      </trkpt>
      <trkpt lat="47.09267" lon="6.21658">
        <ele>439</ele>
        <time>2022-06-05T00:51:49Z</time>
      </trkpt>
      <trkpt lat="47.09269" lon="6.21587">
        <ele>447</ele>
        <time>2022-06-05T00:52:28Z</time>
      </trkpt>
      <trkpt lat="47.0926" lon="6.21522">
        <ele>455</ele>
        <time>2022-06-05T00:53:04Z</time>
      </trkpt>
      <trkpt lat="47.09256" lon="6.215">
        <ele>458</ele>
        <time>2022-06-05T00:53:16Z</time>
      </trkpt>
      <trkpt lat="47.09259" lon="6.2148">
        <ele>462</ele>
        <time>2022-06-05T00:53:28Z</time>
      </trkpt>
      <trkpt lat="47.09262" lon="6.21427">
        <ele>475</ele>
        <time>2022-06-05T00:53:57Z</time>
      </trkpt>
      <trkpt lat="47.09267" lon="6.21411">
        <ele>480</ele>
        <time>2022-06-05T00:54:06Z</time>
      </trkpt>
      <trkpt lat="47.09267" lon="6.21396">
        <ele>484</ele>
        <time>2022-06-05T00:54:14Z</time>
      </trkpt>
      <trkpt lat="47.09264" lon="6.21322">
        <ele>501</ele>
        <time>2022-06-05T00:54:55Z</time>
      </trkpt>
      <trkpt lat="47.09251" lon="6.21276">
        <ele>504</ele>
        <time>2022-06-05T00:55:22Z</time>
      </trkpt>
      <trkpt lat="47.09246" lon="6.21266">
        <ele>506</ele>
        <time>2022-06-05T00:55:29Z</time>
      </trkpt>
      <trkpt lat="47.09225" lon="6.21261">
        <ele>512</ele>
        <time>2022-06-05T00:55:46Z</time>
      </trkpt>
      <trkpt lat="47.09211" lon="6.2127">
        <ele>515</ele>
        <time>2022-06-05T00:55:58Z</time>
      </trkpt>
      <trkpt lat="47.0922" lon="6.21331">
        <ele>506</ele>
        <time>2022-06-05T00:56:32Z</time>
      </trkpt>
      <trkpt lat="47.09211" lon="6.21393">
        <ele>493</ele>
        <time>2022-06-05T00:57:07Z</time>
      </trkpt>
      <trkpt lat="47.09203" lon="6.21418">
        <ele>489</ele>
        <time>2022-06-05T00:57:22Z</time>
      </trkpt>
      <trkpt lat="47.09187" lon="6.21455">
        <ele>485</ele>
        <time>2022-06-05T00:57:46Z</time>
      </trkpt>
      <trkpt lat="47.09172" lon="6.21465">
        <ele>486</ele>
        <time>2022-06-05T00:57:59Z</time>
      </trkpt>
      <trkpt lat="47.0915" lon="6.21468">
        <ele>486</ele>
        <time>2022-06-05T00:58:17Z</time>
      </trkpt>
      <trkpt lat="47.09101" lon="6.21457">
        <ele>490</ele>
        <time>2022-06-05T00:58:56Z</time>
      </trkpt>
      <trkpt lat="47.09032" lon="6.21434">
        <ele>490</ele>
        <time>2022-06-05T00:59:53Z</time>
      </trkpt>
      <trkpt lat="47.08959" lon="6.21392">
        <ele>490</ele>
        <time>2022-06-05T01:00:56Z</time>
      </trkpt>
      <trkpt lat="47.08914" lon="6.21331">
        <ele>504</ele>
        <time>2022-06-05T01:01:45Z</time>
      </trkpt>
      <trkpt lat="47.08884" lon="6.21317">
        <ele>506</ele>
        <time>2022-06-05T01:02:10Z</time>
      </trkpt>
      <trkpt lat="47.08843" lon="6.21325">
        <ele>496</ele>
        <time>2022-06-05T01:02:43Z</time>
      </trkpt>
      <trkpt lat="47.08818" lon="6.21335">
        <ele>489</ele>
        <time>2022-06-05T01:03:04Z</time>
      </trkpt>
      <trkpt lat="47.08788" lon="6.21338">
        <ele>489</ele>
        <time>2022-06-05T01:03:28Z</time>
      </trkpt>
      <trkpt lat="47.08715" lon="6.21323">
        <ele>494</ele>
        <time>2022-06-05T01:04:27Z</time>
      </trkpt>
      <trkpt lat="47.08651" lon="6.21292">
        <ele>503</ele>
        <time>2022-06-05T01:05:21Z</time>
      </trkpt>
      <trkpt lat="47.08638" lon="6.21288">
        <ele>502</ele>
        <time>2022-06-05T01:05:32Z</time>
      </trkpt>
      <trkpt lat="47.08622" lon="6.21299">
        <ele>495</ele>
        <time>2022-06-05T01:05:46Z</time>
      </trkpt>
      <trkpt lat="47.08593" lon="6.21308">
        <ele>487</ele>
        <time>2022-06-05T01:06:10Z</time>
      </trkpt>
      <trkpt lat="47.08579" lon="6.21298">
        <ele>488</ele>
        <time>2022-06-05T01:06:22Z</time>
      </trkpt>
      <trkpt lat="47.08557" lon="6.2126">
        <ele>496</ele>
        <time>2022-06-05T01:06:50Z</time>
      </trkpt>
      <trkpt lat="47.08536" lon="6.21233">
        <ele>498</ele>
        <time>2022-06-05T01:07:12Z</time>
      </trkpt>
      <trkpt lat="47.08501" lon="6.21203">
        <ele>497</ele>
        <time>2022-06-05T01:07:44Z</time>
      </trkpt>
      <trkpt lat="47.08455" lon="6.21147">
        <ele>494</ele>
        <time>2022-06-05T01:08:32Z</time>
      </trkpt>
      <trkpt lat="47.08421" lon="6.21066">
        <ele>498</ele>
        <time>2022-06-05T01:09:24Z</time>
      </trkpt>
      <trkpt lat="47.08406" lon="6.20966">
        <ele>499</ele>
        <time>2022-06-05T01:10:20Z</time>
      </trkpt>
      <trkpt lat="47.08399" lon="6.20879">
        <ele>495</ele>
        <time>2022-06-05T01:11:08Z</time>
      </trkpt>
      <trkpt lat="47.08389" lon="6.20848">
        <ele>488</ele>
        <time>2022-06-05T01:11:27Z</time>
      </trkpt>
      <trkpt lat="47.08386" lon="6.20814">
        <ele>486</ele>
        <time>2022-06-05T01:11:45Z</time>
      </trkpt>
      <trkpt lat="47.08387" lon="6.20742">
        <ele>487</ele>
        <time>2022-06-05T01:12:25Z</time>
      </trkpt>
      <trkpt lat="47.08382" lon="6.2064">
        <ele>473</ele>
        <time>2022-06-05T01:13:21Z</time>
      </trkpt>
      <trkpt lat="47.08392" lon="6.20593">
        <ele>471</ele>
        <time>2022-06-05T01:13:47Z</time>
      </trkpt>
      <trkpt lat="47.08406" lon="6.20572">
        <ele>474</ele>
        <time>2022-06-05T01:14:03Z</time>
      </trkpt>
      <trkpt lat="47.08443" lon="6.205">
        <ele>473</ele>
        <time>2022-06-05T01:14:53Z</time>
      </trkpt>
      <trkpt lat="47.08484" lon="6.20436">
        <ele>472</ele>
        <time>2022-06-05T01:15:41Z</time>
      </trkpt>
      <trkpt lat="47.08537" lon="6.20384">
        <ele>477</ele>
        <time>2022-06-05T01:16:32Z</time>
      </trkpt>
      <trkpt lat="47.08586" lon="6.2037">
        <ele>487</ele>
        <time>2022-06-05T01:17:12Z</time>
      </trkpt>
      <trkpt lat="47.08635" lon="6.20372">
        <ele>499</ele>
        <time>2022-06-05T01:17:51Z</time>
      </trkpt>
      <trkpt lat="47.08641" lon="6.20367">
        <ele>500</ele>
        <time>2022-06-05T01:17:57Z</time>
      </trkpt>
      <trkpt lat="47.08634" lon="6.20342">
        <ele>495</ele>
        <time>2022-06-05T01:18:11Z</time>
      </trkpt>
      <trkpt lat="47.08609" lon="6.20307">
        <ele>492</ele>
        <time>2022-06-05T01:18:39Z</time>
      </trkpt>
      <trkpt lat="47.08575" lon="6.20276">
        <ele>489</ele>
        <time>2022-06-05T01:19:11Z</time>
      </trkpt>
      <trkpt lat="47.08551" lon="6.20265">
        <ele>486</ele>
        <time>2022-06-05T01:19:31Z</time>
      </trkpt>
      <trkpt lat="47.08533" lon="6.20247">
        <ele>486</ele>
        <time>2022-06-05T01:19:49Z</time>
      </trkpt>
      <trkpt lat="47.08479" lon="6.20229">
        <ele>483</ele>
        <time>2022-06-05T01:20:33Z</time>
      </trkpt>
      <trkpt lat="47.08443" lon="6.20213">
        <ele>485</ele>
        <time>2022-06-05T01:21:03Z</time>
      </trkpt>
      <trkpt lat="47.08423" lon="6.20208">
        <ele>484</ele>
        <time>2022-06-05T01:21:19Z</time>
      </trkpt>
      <trkpt lat="47.08401" lon="6.20215">
        <ele>476</ele>
        <time>2022-06-05T01:21:37Z</time>
      </trkpt>
      <trkpt lat="47.0838" lon="6.20223">
        <ele>467</ele>
        <time>2022-06-05T01:21:55Z</time>
      </trkpt>
      <trkpt lat="47.08363" lon="6.20214">
        <ele>464</ele>
        <time>2022-06-05T01:22:09Z</time>
      </trkpt>
      <trkpt lat="47.08354" lon="6.20201">
        <ele>464</ele>
        <time>2022-06-05T01:22:19Z</time>
      </trkpt>
      <trkpt lat="47.08347" lon="6.20176">
        <ele>467</ele>
        <time>2022-06-05T01:22:34Z</time>
      </trkpt>
      <trkpt lat="47.08344" lon="6.20155">
        <ele>468</ele>
        <time>2022-06-05T01:22:46Z</time>
      </trkpt>
      <trkpt lat="47.08344" lon="6.20139">
        <ele>469</ele>
        <time>2022-06-05T01:22:55Z</time>
      </trkpt>
      <trkpt lat="47.08346" lon="6.2013">
        <ele>471</ele>
        <time>2022-06-05T01:23:00Z</time>
      </trkpt>
      <trkpt lat="47.08349" lon="6.20121">
        <ele>473</ele>
        <time>2022-06-05T01:23:05Z</time>
      </trkpt>
      <trkpt lat="47.08351" lon="6.20112">
        <ele>475</ele>
        <time>2022-06-05T01:23:10Z</time>
      </trkpt>
      <trkpt lat="47.08355" lon="6.201">
        <ele>478</ele>
        <time>2022-06-05T01:23:18Z</time>
      </trkpt>
      <trkpt lat="47.08356" lon="6.2009">
        <ele>479</ele>
        <time>2022-06-05T01:23:23Z</time>
      </trkpt>
      <trkpt lat="47.08356" lon="6.20079">
        <ele>480</ele>
        <time>2022-06-05T01:23:29Z</time>
      </trkpt>
      <trkpt lat="47.08354" lon="6.20066">
        <ele>479</ele>
        <time>2022-06-05T01:23:37Z</time>
      </trkpt>
      <trkpt lat="47.08347" lon="6.20037">
        <ele>476</ele>
        <time>2022-06-05T01:23:53Z</time>
      </trkpt>
      <trkpt lat="47.08344" lon="6.19993">
        <ele>475</ele>
        <time>2022-06-05T01:24:17Z</time>
      </trkpt>
      <trkpt lat="47.08344" lon="6.19956">
        <ele>473</ele>
        <time>2022-06-05T01:24:38Z</time>
      </trkpt>
      <trkpt lat="47.08347" lon="6.19922">
        <ele>472</ele>
        <time>2022-06-05T01:24:56Z</time>
      </trkpt>
      <trkpt lat="47.08356" lon="6.19896">
        <ele>473</ele>
        <time>2022-06-05T01:25:12Z</time>
      </trkpt>
      <trkpt lat="47.08372" lon="6.19872">
        <ele>476</ele>
        <time>2022-06-05T01:25:31Z</time>
      </trkpt>
      <trkpt lat="47.084" lon="6.19858">
        <ele>484</ele>
        <time>2022-06-05T01:25:54Z</time>
      </trkpt>
      <trkpt lat="47.08427" lon="6.19848">
        <ele>489</ele>
        <time>2022-06-05T01:26:17Z</time>
      </trkpt>
      <trkpt lat="47.08428" lon="6.19847">
        <ele>489</ele>
        <time>2022-06-05T01:26:18Z</time>
      </trkpt>
      <trkpt lat="47.0846" lon="6.19843">
        <ele>491</ele>
        <time>2022-06-05T01:26:43Z</time>
      </trkpt>
      <trkpt lat="47.08511" lon="6.19839">
        <ele>496</ele>
        <time>2022-06-05T01:27:24Z</time>
      </trkpt>
      <trkpt lat="47.0853" lon="6.19833">
        <ele>499</ele>
        <time>2022-06-05T01:27:40Z</time>
      </trkpt>
      <trkpt lat="47.0854" lon="6.19824">
        <ele>500</ele>
        <time>2022-06-05T01:27:49Z</time>
      </trkpt>
      <trkpt lat="47.08546" lon="6.19796">
        <ele>497</ele>
        <time>2022-06-05T01:28:05Z</time>
      </trkpt>
      <trkpt lat="47.08546" lon="6.19783">
        <ele>495</ele>
        <time>2022-06-05T01:28:12Z</time>
      </trkpt>
      <trkpt lat="47.08547" lon="6.19769">
        <ele>493</ele>
        <time>2022-06-05T01:28:20Z</time>
      </trkpt>
      <trkpt lat="47.08547" lon="6.19743">
        <ele>490</ele>
        <time>2022-06-05T01:28:34Z</time>
      </trkpt>
      <trkpt lat="47.0855" lon="6.19714">
        <ele>488</ele>
        <time>2022-06-05T01:28:50Z</time>
      </trkpt>
      <trkpt lat="47.08556" lon="6.19691">
        <ele>488</ele>
        <time>2022-06-05T01:29:04Z</time>
      </trkpt>
      <trkpt lat="47.08563" lon="6.1967">
        <ele>489</ele>
        <time>2022-06-05T01:29:16Z</time>
      </trkpt>
      <trkpt lat="47.08568" lon="6.19659">
        <ele>490</ele>
        <time>2022-06-05T01:29:24Z</time>
      </trkpt>
      <trkpt lat="47.08587" lon="6.1962">
        <ele>492</ele>
        <time>2022-06-05T01:29:50Z</time>
      </trkpt>
      <trkpt lat="47.08654" lon="6.19494">
        <ele>493</ele>
        <time>2022-06-05T01:31:17Z</time>
      </trkpt>
      <trkpt lat="47.08659" lon="6.19474">
        <ele>492</ele>
        <time>2022-06-05T01:31:29Z</time>
      </trkpt>
      <trkpt lat="47.08667" lon="6.19435">
        <ele>492</ele>
        <time>2022-06-05T01:31:51Z</time>
      </trkpt>
      <trkpt lat="47.08669" lon="6.1942">
        <ele>491</ele>
        <time>2022-06-05T01:31:59Z</time>
      </trkpt>
      <trkpt lat="47.08676" lon="6.19385">
        <ele>488</ele>
        <time>2022-06-05T01:32:19Z</time>
      </trkpt>
      <trkpt lat="47.0868" lon="6.19372">
        <ele>488</ele>
        <time>2022-06-05T01:32:27Z</time>
      </trkpt>
      <trkpt lat="47.08683" lon="6.1936">
        <ele>487</ele>
        <time>2022-06-05T01:32:34Z</time>
      </trkpt>
      <trkpt lat="47.08691" lon="6.19342">
        <ele>486</ele>
        <time>2022-06-05T01:32:46Z</time>
      </trkpt>
      <trkpt lat="47.08697" lon="6.19331">
        <ele>485</ele>
        <time>2022-06-05T01:32:53Z</time>
      </trkpt>
      <trkpt lat="47.08703" lon="6.19321">
        <ele>484</ele>
        <time>2022-06-05T01:33:01Z</time>
      </trkpt>
      <trkpt lat="47.08711" lon="6.19314">
        <ele>483</ele>
        <time>2022-06-05T01:33:08Z</time>
      </trkpt>
      <trkpt lat="47.08701" lon="6.19281">
        <ele>479</ele>
        <time>2022-06-05T01:33:28Z</time>
      </trkpt>
      <trkpt lat="47.08685" lon="6.19234">
        <ele>473</ele>
        <time>2022-06-05T01:33:57Z</time>
      </trkpt>
      <trkpt lat="47.08678" lon="6.19212">
        <ele>470</ele>
        <time>2022-06-05T01:34:10Z</time>
      </trkpt>
      <trkpt lat="47.08672" lon="6.19201">
        <ele>469</ele>
        <time>2022-06-05T01:34:17Z</time>
      </trkpt>
      <trkpt lat="47.08662" lon="6.19197">
        <ele>466</ele>
        <time>2022-06-05T01:34:26Z</time>
      </trkpt>
      <trkpt lat="47.08653" lon="6.19189">
        <ele>462</ele>
        <time>2022-06-05T01:34:34Z</time>
      </trkpt>
      <trkpt lat="47.08647" lon="6.19179">
        <ele>458</ele>
        <time>2022-06-05T01:34:41Z</time>
      </trkpt>
      <trkpt lat="47.08645" lon="6.19172">
        <ele>457</ele>
        <time>2022-06-05T01:34:46Z</time>
      </trkpt>
      <trkpt lat="47.0867" lon="6.19148">
        <ele>461</ele>
        <time>2022-06-05T01:35:10Z</time>
      </trkpt>
      <trkpt lat="47.08694" lon="6.19121">
        <ele>458</ele>
        <time>2022-06-05T01:35:34Z</time>
      </trkpt>
      <trkpt lat="47.08736" lon="6.19078">
        <ele>457</ele>
        <time>2022-06-05T01:36:15Z</time>
      </trkpt>
      <trkpt lat="47.08761" lon="6.19068">
        <ele>453</ele>
        <time>2022-06-05T01:36:36Z</time>
      </trkpt>
      <trkpt lat="47.08762" lon="6.1906">
        <ele>450</ele>
        <time>2022-06-05T01:36:40Z</time>
      </trkpt>
      <trkpt lat="47.08799" lon="6.19075">
        <ele>447</ele>
        <time>2022-06-05T01:37:11Z</time>
      </trkpt>
      <trkpt lat="47.08815" lon="6.19101">
        <ele>450</ele>
        <time>2022-06-05T01:37:30Z</time>
      </trkpt>
      <trkpt lat="47.08838" lon="6.19147">
        <ele>457</ele>
        <time>2022-06-05T01:38:01Z</time>
      </trkpt>
      <trkpt lat="47.08833" lon="6.19168">
        <ele>464</ele>
        <time>2022-06-05T01:38:13Z</time>
      </trkpt>
      <trkpt lat="47.08854" lon="6.19215">
        <ele>462</ele>
        <time>2022-06-05T01:38:44Z</time>
      </trkpt>
      <trkpt lat="47.08866" lon="6.19289">
        <ele>468</ele>
        <time>2022-06-05T01:39:25Z</time>
      </trkpt>
      <trkpt lat="47.08881" lon="6.19292">
        <ele>465</ele>
        <time>2022-06-05T01:39:38Z</time>
      </trkpt>
      <trkpt lat="47.08889" lon="6.19298">
        <ele>464</ele>
        <time>2022-06-05T01:39:45Z</time>
      </trkpt>
      <trkpt lat="47.08897" lon="6.19306">
        <ele>463</ele>
        <time>2022-06-05T01:39:52Z</time>
      </trkpt>
      <trkpt lat="47.08904" lon="6.19314">
        <ele>462</ele>
        <time>2022-06-05T01:40:00Z</time>
      </trkpt>
      <trkpt lat="47.08912" lon="6.19329">
        <ele>463</ele>
        <time>2022-06-05T01:40:10Z</time>
      </trkpt>
      <trkpt lat="47.08921" lon="6.19343">
        <ele>462</ele>
        <time>2022-06-05T01:40:21Z</time>
      </trkpt>
      <trkpt lat="47.08931" lon="6.19362">
        <ele>459</ele>
        <time>2022-06-05T01:40:34Z</time>
      </trkpt>
      <trkpt lat="47.0894" lon="6.1938">
        <ele>456</ele>
        <time>2022-06-05T01:40:46Z</time>
      </trkpt>
      <trkpt lat="47.08946" lon="6.19395">
        <ele>455</ele>
        <time>2022-06-05T01:40:55Z</time>
      </trkpt>
      <trkpt lat="47.08956" lon="6.19436">
        <ele>453</ele>
        <time>2022-06-05T01:41:19Z</time>
      </trkpt>
      <trkpt lat="47.08959" lon="6.1946">
        <ele>453</ele>
        <time>2022-06-05T01:41:32Z</time>
      </trkpt>
      <trkpt lat="47.08961" lon="6.19488">
        <ele>454</ele>
        <time>2022-06-05T01:41:48Z</time>
      </trkpt>
      <trkpt lat="47.08963" lon="6.19504">
        <ele>454</ele>
        <time>2022-06-05T01:41:57Z</time>
      </trkpt>
      <trkpt lat="47.08969" lon="6.19535">
        <ele>452</ele>
        <time>2022-06-05T01:42:14Z</time>
      </trkpt>
      <trkpt lat="47.08969" lon="6.19545">
        <ele>452</ele>
        <time>2022-06-05T01:42:20Z</time>
      </trkpt>
      <trkpt lat="47.08968" lon="6.19553">
        <ele>452</ele>
        <time>2022-06-05T01:42:24Z</time>
      </trkpt>
      <trkpt lat="47.08966" lon="6.19561">
        <ele>453</ele>
        <time>2022-06-05T01:42:29Z</time>
      </trkpt>
      <trkpt lat="47.08962" lon="6.19571">
        <ele>455</ele>
        <time>2022-06-05T01:42:35Z</time>
      </trkpt>
      <trkpt lat="47.08954" lon="6.19594">
        <ele>458</ele>
        <time>2022-06-05T01:42:49Z</time>
      </trkpt>
      <trkpt lat="47.08951" lon="6.19605">
        <ele>460</ele>
        <time>2022-06-05T01:42:56Z</time>
      </trkpt>
      <trkpt lat="47.08949" lon="6.19631">
        <ele>461</ele>
        <time>2022-06-05T01:43:10Z</time>
      </trkpt>
      <trkpt lat="47.08949" lon="6.19685">
        <ele>462</ele>
        <time>2022-06-05T01:43:39Z</time>
      </trkpt>
      <trkpt lat="47.08951" lon="6.19705">
        <ele>463</ele>
        <time>2022-06-05T01:43:50Z</time>
      </trkpt>
      <trkpt lat="47.08953" lon="6.19713">
        <ele>464</ele>
        <time>2022-06-05T01:43:55Z</time>
      </trkpt>
      <trkpt lat="47.08957" lon="6.19719">
        <ele>463</ele>
        <time>2022-06-05T01:44:00Z</time>
      </trkpt>
      <trkpt lat="47.08962" lon="6.19724">
        <ele>462</ele>
        <time>2022-06-05T01:44:04Z</time>
      </trkpt>
      <trkpt lat="47.08967" lon="6.19726">
        <ele>461</ele>
        <time>2022-06-05T01:44:09Z</time>
      </trkpt>
      <trkpt lat="47.08971" lon="6.19726">
        <ele>460</ele>
        <time>2022-06-05T01:44:12Z</time>
      </trkpt>
      <trkpt lat="47.08978" lon="6.19727">
        <ele>459</ele>
        <time>2022-06-05T01:44:17Z</time>
      </trkpt>
      <trkpt lat="47.09001" lon="6.19725">
        <ele>452</ele>
        <time>2022-06-05T01:44:36Z</time>
      </trkpt>
      <trkpt lat="47.0901" lon="6.19726">
        <ele>451</ele>
        <time>2022-06-05T01:44:43Z</time>
      </trkpt>
      <trkpt lat="47.09032" lon="6.19732">
        <ele>447</ele>
        <time>2022-06-05T01:45:01Z</time>
      </trkpt>
      <trkpt lat="47.09042" lon="6.19737">
        <ele>446</ele>
        <time>2022-06-05T01:45:10Z</time>
      </trkpt>
      <trkpt lat="47.09056" lon="6.19745">
        <ele>445</ele>
        <time>2022-06-05T01:45:22Z</time>
      </trkpt>
      <trkpt lat="47.09069" lon="6.19754">
        <ele>444</ele>
        <time>2022-06-05T01:45:33Z</time>
      </trkpt>
      <trkpt lat="47.09076" lon="6.19761">
        <ele>444</ele>
        <time>2022-06-05T01:45:40Z</time>
      </trkpt>
      <trkpt lat="47.09084" lon="6.19774">
        <ele>444</ele>
        <time>2022-06-05T01:45:49Z</time>
      </trkpt>
      <trkpt lat="47.09089" lon="6.19795">
        <ele>446</ele>
        <time>2022-06-05T01:46:02Z</time>
      </trkpt>
      <trkpt lat="47.09089" lon="6.19823">
        <ele>451</ele>
        <time>2022-06-05T01:46:17Z</time>
      </trkpt>
      <trkpt lat="47.09088" lon="6.19843">
        <ele>453</ele>
        <time>2022-06-05T01:46:28Z</time>
      </trkpt>
      <trkpt lat="47.09083" lon="6.19898">
        <ele>456</ele>
        <time>2022-06-05T01:46:58Z</time>
      </trkpt>
      <trkpt lat="47.09084" lon="6.19903">
        <ele>456</ele>
        <time>2022-06-05T01:47:01Z</time>
      </trkpt>
      <trkpt lat="47.09085" lon="6.19906">
        <ele>456</ele>
        <time>2022-06-05T01:47:03Z</time>
      </trkpt>
      <trkpt lat="47.09087" lon="6.19908">
        <ele>456</ele>
        <time>2022-06-05T01:47:05Z</time>
      </trkpt>
      <trkpt lat="47.09089" lon="6.19907">
        <ele>456</ele>
        <time>2022-06-05T01:47:06Z</time>
      </trkpt>
      <trkpt lat="47.09086" lon="6.19928">
        <ele>458</ele>
        <time>2022-06-05T01:47:18Z</time>
      </trkpt>
      <trkpt lat="47.0908" lon="6.19949">
        <ele>461</ele>
        <time>2022-06-05T01:47:31Z</time>
      </trkpt>
      <trkpt lat="47.09078" lon="6.19986">
        <ele>465</ele>
        <time>2022-06-05T01:47:51Z</time>
      </trkpt>
      <trkpt lat="47.09078" lon="6.20003">
        <ele>467</ele>
        <time>2022-06-05T01:48:00Z</time>
      </trkpt>
      <trkpt lat="47.09079" lon="6.20037">
        <ele>471</ele>
        <time>2022-06-05T01:48:19Z</time>
      </trkpt>
      <trkpt lat="47.09082" lon="6.20063">
        <ele>472</ele>
        <time>2022-06-05T01:48:33Z</time>
      </trkpt>
      <trkpt lat="47.09085" lon="6.20083">
        <ele>474</ele>
        <time>2022-06-05T01:48:44Z</time>
      </trkpt>
      <trkpt lat="47.09092" lon="6.20109">
        <ele>480</ele>
        <time>2022-06-05T01:49:00Z</time>
      </trkpt>
      <trkpt lat="47.09095" lon="6.20125">
        <ele>484</ele>
        <time>2022-06-05T01:49:09Z</time>
      </trkpt>
      <trkpt lat="47.09097" lon="6.20131">
        <ele>485</ele>
        <time>2022-06-05T01:49:12Z</time>
      </trkpt>
      <trkpt lat="47.091" lon="6.20134">
        <ele>486</ele>
        <time>2022-06-05T01:49:15Z</time>
      </trkpt>
      <trkpt lat="47.09103" lon="6.20135">
        <ele>487</ele>
        <time>2022-06-05T01:49:18Z</time>
      </trkpt>
      <trkpt lat="47.09106" lon="6.20135">
        <ele>487</ele>
        <time>2022-06-05T01:49:20Z</time>
      </trkpt>
      <trkpt lat="47.09108" lon="6.20132">
        <ele>487</ele>
        <time>2022-06-05T01:49:22Z</time>
      </trkpt>
      <trkpt lat="47.0911" lon="6.20126">
        <ele>486</ele>
        <time>2022-06-05T01:49:26Z</time>
      </trkpt>
      <trkpt lat="47.09114" lon="6.20111">
        <ele>484</ele>
        <time>2022-06-05T01:49:35Z</time>
      </trkpt>
      <trkpt lat="47.0912" lon="6.20097">
        <ele>482</ele>
        <time>2022-06-05T01:49:44Z</time>
      </trkpt>
      <trkpt lat="47.09136" lon="6.20046">
        <ele>475</ele>
        <time>2022-06-05T01:50:14Z</time>
      </trkpt>
      <trkpt lat="47.09142" lon="6.2003">
        <ele>473</ele>
        <time>2022-06-05T01:50:24Z</time>
      </trkpt>
      <trkpt lat="47.09149" lon="6.20016">
        <ele>471</ele>
        <time>2022-06-05T01:50:34Z</time>
      </trkpt>
      <trkpt lat="47.09157" lon="6.20007">
        <ele>470</ele>
        <time>2022-06-05T01:50:42Z</time>
      </trkpt>
      <trkpt lat="47.09166" lon="6.19999">
        <ele>469</ele>
        <time>2022-06-05T01:50:50Z</time>
      </trkpt>
      <trkpt lat="47.09178" lon="6.19993">
        <ele>469</ele>
        <time>2022-06-05T01:51:00Z</time>
      </trkpt>
      <trkpt lat="47.09193" lon="6.1999">
        <ele>471</ele>
        <time>2022-06-05T01:51:13Z</time>
      </trkpt>
      <trkpt lat="47.09204" lon="6.1999">
        <ele>473</ele>
        <time>2022-06-05T01:51:21Z</time>
      </trkpt>
      <trkpt lat="47.09252" lon="6.19999">
        <ele>485</ele>
        <time>2022-06-05T01:52:00Z</time>
      </trkpt>
      <trkpt lat="47.09258" lon="6.19997">
        <ele>486</ele>
        <time>2022-06-05T01:52:05Z</time>
      </trkpt>
      <trkpt lat="47.09263" lon="6.19991">
        <ele>486</ele>
        <time>2022-06-05T01:52:10Z</time>
      </trkpt>
      <trkpt lat="47.09267" lon="6.19985">
        <ele>486</ele>
        <time>2022-06-05T01:52:15Z</time>
      </trkpt>
      <trkpt lat="47.0927" lon="6.19978">
        <ele>486</ele>
        <time>2022-06-05T01:52:19Z</time>
      </trkpt>
      <trkpt lat="47.09272" lon="6.19969">
        <ele>484</ele>
        <time>2022-06-05T01:52:25Z</time>
      </trkpt>
      <trkpt lat="47.09274" lon="6.19956">
        <ele>482</ele>
        <time>2022-06-05T01:52:32Z</time>
      </trkpt>
      <trkpt lat="47.09276" lon="6.19938">
        <ele>479</ele>
        <time>2022-06-05T01:52:42Z</time>
      </trkpt>
      <trkpt lat="47.09282" lon="6.19894">
        <ele>474</ele>
        <time>2022-06-05T01:53:06Z</time>
      </trkpt>
      <trkpt lat="47.09286" lon="6.19878">
        <ele>472</ele>
        <time>2022-06-05T01:53:16Z</time>
      </trkpt>
      <trkpt lat="47.09289" lon="6.19864">
        <ele>471</ele>
        <time>2022-06-05T01:53:24Z</time>
      </trkpt>
      <trkpt lat="47.09295" lon="6.19839">
        <ele>470</ele>
        <time>2022-06-05T01:53:38Z</time>
      </trkpt>
      <trkpt lat="47.09299" lon="6.19829">
        <ele>469</ele>
        <time>2022-06-05T01:53:44Z</time>
      </trkpt>
      <trkpt lat="47.09304" lon="6.1982">
        <ele>468</ele>
        <time>2022-06-05T01:53:51Z</time>
      </trkpt>
      <trkpt lat="47.0931" lon="6.19814">
        <ele>469</ele>
        <time>2022-06-05T01:53:57Z</time>
      </trkpt>
      <trkpt lat="47.09317" lon="6.1981">
        <ele>470</ele>
        <time>2022-06-05T01:54:03Z</time>
      </trkpt>
      <trkpt lat="47.09324" lon="6.19809">
        <ele>472</ele>
        <time>2022-06-05T01:54:08Z</time>
      </trkpt>
      <trkpt lat="47.09336" lon="6.19809">
        <ele>476</ele>
        <time>2022-06-05T01:54:18Z</time>
      </trkpt>
      <trkpt lat="47.09348" lon="6.19812">
        <ele>476</ele>
        <time>2022-06-05T01:54:28Z</time>
      </trkpt>
      <trkpt lat="47.09358" lon="6.19816">
        <ele>477</ele>
        <time>2022-06-05T01:54:36Z</time>
      </trkpt>
      <trkpt lat="47.09367" lon="6.19819">
        <ele>478</ele>
        <time>2022-06-05T01:54:43Z</time>
      </trkpt>
      <trkpt lat="47.09377" lon="6.19821">
        <ele>478</ele>
        <time>2022-06-05T01:54:51Z</time>
      </trkpt>
      <trkpt lat="47.0939" lon="6.19823">
        <ele>479</ele>
        <time>2022-06-05T01:55:02Z</time>
      </trkpt>
      <trkpt lat="47.09404" lon="6.19829">
        <ele>480</ele>
        <time>2022-06-05T01:55:14Z</time>
      </trkpt>
      <trkpt lat="47.09415" lon="6.19835">
        <ele>481</ele>
        <time>2022-06-05T01:55:23Z</time>
      </trkpt>
      <trkpt lat="47.0943" lon="6.19846">
        <ele>481</ele>
        <time>2022-06-05T01:55:36Z</time>
      </trkpt>
      <trkpt lat="47.09456" lon="6.1987">
        <ele>480</ele>
        <time>2022-06-05T01:56:01Z</time>
      </trkpt>
      <trkpt lat="47.0946" lon="6.19873">
        <ele>480</ele>
        <time>2022-06-05T01:56:05Z</time>
      </trkpt>
      <trkpt lat="47.09472" lon="6.19889">
        <ele>480</ele>
        <time>2022-06-05T01:56:18Z</time>
      </trkpt>
      <trkpt lat="47.09489" lon="6.19914">
        <ele>479</ele>
        <time>2022-06-05T01:56:37Z</time>
      </trkpt>
      <trkpt lat="47.09507" lon="6.19946">
        <ele>478</ele>
        <time>2022-06-05T01:57:00Z</time>
      </trkpt>
      <trkpt lat="47.09511" lon="6.19952">
        <ele>477</ele>
        <time>2022-06-05T01:57:04Z</time>
      </trkpt>
      <trkpt lat="47.09516" lon="6.19963">
        <ele>477</ele>
        <time>2022-06-05T01:57:11Z</time>
      </trkpt>
      <trkpt lat="47.09522" lon="6.19981">
        <ele>476</ele>
        <time>2022-06-05T01:57:22Z</time>
      </trkpt>
      <trkpt lat="47.09529" lon="6.20015">
        <ele>477</ele>
        <time>2022-06-05T01:57:42Z</time>
      </trkpt>
      <trkpt lat="47.0953" lon="6.20028">
        <ele>478</ele>
        <time>2022-06-05T01:57:49Z</time>
      </trkpt>
      <trkpt lat="47.09534" lon="6.20067">
        <ele>480</ele>
        <time>2022-06-05T01:58:10Z</time>
      </trkpt>
      <trkpt lat="47.09539" lon="6.20128">
        <ele>484</ele>
        <time>2022-06-05T01:58:44Z</time>
      </trkpt>
      <trkpt lat="47.0954" lon="6.20145">
        <ele>485</ele>
        <time>2022-06-05T01:58:53Z</time>
      </trkpt>
      <trkpt lat="47.0954" lon="6.20164">
        <ele>487</ele>
        <time>2022-06-05T01:59:04Z</time>
      </trkpt>
      <trkpt lat="47.09538" lon="6.20191">
        <ele>493</ele>
        <time>2022-06-05T01:59:18Z</time>
      </trkpt>
      <trkpt lat="47.09537" lon="6.20218">
        <ele>498</ele>
        <time>2022-06-05T01:59:33Z</time>
      </trkpt>
      <trkpt lat="47.09538" lon="6.20226">
        <ele>499</ele>
        <time>2022-06-05T01:59:38Z</time>
      </trkpt>
      <trkpt lat="47.09541" lon="6.20233">
        <ele>500</ele>
        <time>2022-06-05T01:59:42Z</time>
      </trkpt>
      <trkpt lat="47.09545" lon="6.2024">
        <ele>499</ele>
        <time>2022-06-05T01:59:47Z</time>
      </trkpt>
      <trkpt lat="47.09553" lon="6.20248">
        <ele>498</ele>
        <time>2022-06-05T01:59:55Z</time>
      </trkpt>
      <trkpt lat="47.0956" lon="6.20266">
        <ele>498</ele>
        <time>2022-06-05T02:00:06Z</time>
      </trkpt>
      <trkpt lat="47.09568" lon="6.20291">
        <ele>499</ele>
        <time>2022-06-05T02:00:21Z</time>
      </trkpt>
      <trkpt lat="47.09574" lon="6.20312">
        <ele>501</ele>
        <time>2022-06-05T02:00:34Z</time>
      </trkpt>
      <trkpt lat="47.09581" lon="6.20341">
        <ele>503</ele>
        <time>2022-06-05T02:00:50Z</time>
      </trkpt>
      <trkpt lat="47.09594" lon="6.20377">
        <ele>505</ele>
        <time>2022-06-05T02:01:13Z</time>
      </trkpt>
      <trkpt lat="47.09599" lon="6.20389">
        <ele>505</ele>
        <time>2022-06-05T02:01:20Z</time>
      </trkpt>
      <trkpt lat="47.09619" lon="6.20433">
        <ele>506</ele>
        <time>2022-06-05T02:01:49Z</time>
      </trkpt>
      <trkpt lat="47.09632" lon="6.20467">
        <ele>507</ele>
        <time>2022-06-05T02:02:10Z</time>
      </trkpt>
      <trkpt lat="47.09636" lon="6.20479">
        <ele>507</ele>
        <time>2022-06-05T02:02:18Z</time>
      </trkpt>
      <trkpt lat="47.09638" lon="6.2049">
        <ele>508</ele>
        <time>2022-06-05T02:02:24Z</time>
      </trkpt>
      <trkpt lat="47.0964" lon="6.20512">
        <ele>511</ele>
        <time>2022-06-05T02:02:36Z</time>
      </trkpt>
      <trkpt lat="47.0964" lon="6.20546">
        <ele>516</ele>
        <time>2022-06-05T02:02:55Z</time>
      </trkpt>
      <trkpt lat="47.09641" lon="6.20551">
        <ele>517</ele>
        <time>2022-06-05T02:02:57Z</time>
      </trkpt>
      <trkpt lat="47.09643" lon="6.20557">
        <ele>517</ele>
        <time>2022-06-05T02:03:01Z</time>
      </trkpt>
      <trkpt lat="47.09645" lon="6.20561">
        <ele>517</ele>
        <time>2022-06-05T02:03:04Z</time>
      </trkpt>
      <trkpt lat="47.09647" lon="6.20565">
        <ele>517</ele>
        <time>2022-06-05T02:03:07Z</time>
      </trkpt>
      <trkpt lat="47.09651" lon="6.20568">
        <ele>516</ele>
        <time>2022-06-05T02:03:10Z</time>
      </trkpt>
      <trkpt lat="47.09658" lon="6.20568">
        <ele>513</ele>
        <time>2022-06-05T02:03:16Z</time>
      </trkpt>
      <trkpt lat="47.09669" lon="6.20561">
        <ele>509</ele>
        <time>2022-06-05T02:03:25Z</time>
      </trkpt>
      <trkpt lat="47.09678" lon="6.20553">
        <ele>509</ele>
        <time>2022-06-05T02:03:34Z</time>
      </trkpt>
      <trkpt lat="47.09691" lon="6.20543">
        <ele>508</ele>
        <time>2022-06-05T02:03:46Z</time>
      </trkpt>
      <trkpt lat="47.097" lon="6.20533">
        <ele>508</ele>
        <time>2022-06-05T02:03:55Z</time>
      </trkpt>
      <trkpt lat="47.09723" lon="6.20514">
        <ele>506</ele>
        <time>2022-06-05T02:04:16Z</time>
      </trkpt>
      <trkpt lat="47.09731" lon="6.20511">
        <ele>505</ele>
        <time>2022-06-05T02:04:22Z</time>
      </trkpt>
      <trkpt lat="47.09747" lon="6.20506">
        <ele>505</ele>
        <time>2022-06-05T02:04:35Z</time>
      </trkpt>
      <trkpt lat="47.09752" lon="6.20503">
        <ele>506</ele>
        <time>2022-06-05T02:04:40Z</time>
      </trkpt>
      <trkpt lat="47.09756" lon="6.205">
        <ele>506</ele>
        <time>2022-06-05T02:04:43Z</time>
      </trkpt>
      <trkpt lat="47.09759" lon="6.20495">
        <ele>507</ele>
        <time>2022-06-05T02:04:47Z</time>
      </trkpt>
      <trkpt lat="47.09762" lon="6.2048">
        <ele>506</ele>
        <time>2022-06-05T02:04:56Z</time>
      </trkpt>
      <trkpt lat="47.09764" lon="6.20466">
        <ele>506</ele>
        <time>2022-06-05T02:05:03Z</time>
      </trkpt>
      <trkpt lat="47.09771" lon="6.20427">
        <ele>504</ele>
        <time>2022-06-05T02:05:25Z</time>
      </trkpt>
      <trkpt lat="47.09774" lon="6.20397">
        <ele>504</ele>
        <time>2022-06-05T02:05:42Z</time>
      </trkpt>
      <trkpt lat="47.09776" lon="6.2037">
        <ele>503</ele>
        <time>2022-06-05T02:05:57Z</time>
      </trkpt>
      <trkpt lat="47.0978" lon="6.20342">
        <ele>504</ele>
        <time>2022-06-05T02:06:12Z</time>
      </trkpt>
      <trkpt lat="47.09798" lon="6.20249">
        <ele>505</ele>
        <time>2022-06-05T02:07:05Z</time>
      </trkpt>
      <trkpt lat="47.09807" lon="6.20217">
        <ele>506</ele>
        <time>2022-06-05T02:07:24Z</time>
      </trkpt>
      <trkpt lat="47.09814" lon="6.20196">
        <ele>507</ele>
        <time>2022-06-05T02:07:37Z</time>
      </trkpt>
      <trkpt lat="47.09822" lon="6.20178">
        <ele>508</ele>
        <time>2022-06-05T02:07:48Z</time>
      </trkpt>
      <trkpt lat="47.09831" lon="6.20164">
        <ele>509</ele>
        <time>2022-06-05T02:07:59Z</time>
      </trkpt>
      <trkpt lat="47.0984" lon="6.20154">
        <ele>509</ele>
        <time>2022-06-05T02:08:08Z</time>
      </trkpt>
      <trkpt lat="47.09853" lon="6.20146">
        <ele>509</ele>
        <time>2022-06-05T02:08:19Z</time>
      </trkpt>
      <trkpt lat="47.09868" lon="6.20139">
        <ele>509</ele>
        <time>2022-06-05T02:08:32Z</time>
      </trkpt>
      <trkpt lat="47.09882" lon="6.20136">
        <ele>509</ele>
        <time>2022-06-05T02:08:43Z</time>
      </trkpt>
      <trkpt lat="47.09898" lon="6.20134">
        <ele>509</ele>
        <time>2022-06-05T02:08:56Z</time>
      </trkpt>
      <trkpt lat="47.0991" lon="6.20134">
        <ele>509</ele>
        <time>2022-06-05T02:09:06Z</time>
      </trkpt>
      <trkpt lat="47.09925" lon="6.20143">
        <ele>509</ele>
        <time>2022-06-05T02:09:19Z</time>
      </trkpt>
      <trkpt lat="47.09935" lon="6.20156">
        <ele>509</ele>
        <time>2022-06-05T02:09:29Z</time>
      </trkpt>
      <trkpt lat="47.0995" lon="6.20183">
        <ele>508</ele>
        <time>2022-06-05T02:09:48Z</time>
      </trkpt>
      <trkpt lat="47.09981" lon="6.20269">
        <ele>510</ele>
        <time>2022-06-05T02:10:42Z</time>
      </trkpt>
      <trkpt lat="47.09984" lon="6.20282">
        <ele>511</ele>
        <time>2022-06-05T02:10:49Z</time>
      </trkpt>
      <trkpt lat="47.10019" lon="6.20415">
        <ele>522</ele>
        <time>2022-06-05T02:12:07Z</time>
      </trkpt>
      <trkpt lat="47.10029" lon="6.20449">
        <ele>528</ele>
        <time>2022-06-05T02:12:27Z</time>
      </trkpt>
      <trkpt lat="47.10042" lon="6.20485">
        <ele>534</ele>
        <time>2022-06-05T02:12:49Z</time>
      </trkpt>
      <trkpt lat="47.10047" lon="6.20495">
        <ele>535</ele>
        <time>2022-06-05T02:12:56Z</time>
      </trkpt>
      <trkpt lat="47.10052" lon="6.20497">
        <ele>535</ele>
        <time>2022-06-05T02:13:00Z</time>
      </trkpt>
      <trkpt lat="47.10057" lon="6.20493">
        <ele>533</ele>
        <time>2022-06-05T02:13:05Z</time>
      </trkpt>
      <trkpt lat="47.10063" lon="6.20485">
        <ele>530</ele>
        <time>2022-06-05T02:13:11Z</time>
      </trkpt>
      <trkpt lat="47.10068" lon="6.20473">
        <ele>527</ele>
        <time>2022-06-05T02:13:19Z</time>
      </trkpt>
      <trkpt lat="47.10083" lon="6.20448">
        <ele>518</ele>
        <time>2022-06-05T02:13:37Z</time>
      </trkpt>
      <trkpt lat="47.10105" lon="6.20414">
        <ele>515</ele>
        <time>2022-06-05T02:14:03Z</time>
      </trkpt>
      <trkpt lat="47.10119" lon="6.20394">
        <ele>514</ele>
        <time>2022-06-05T02:14:18Z</time>
      </trkpt>
      <trkpt lat="47.10136" lon="6.20375">
        <ele>513</ele>
        <time>2022-06-05T02:14:35Z</time>
      </trkpt>
      <trkpt lat="47.10162" lon="6.20356">
        <ele>515</ele>
        <time>2022-06-05T02:14:59Z</time>
      </trkpt>
      <trkpt lat="47.10203" lon="6.20363">
        <ele>515</ele>
        <time>2022-06-05T02:15:32Z</time>
      </trkpt>
      <trkpt lat="47.10238" lon="6.20383">
        <ele>518</ele>
        <time>2022-06-05T02:16:02Z</time>
      </trkpt>
      <trkpt lat="47.10259" lon="6.20417">
        <ele>524</ele>
        <time>2022-06-05T02:16:27Z</time>
      </trkpt>
      <trkpt lat="47.1027" lon="6.20473">
        <ele>537</ele>
        <time>2022-06-05T02:16:59Z</time>
      </trkpt>
      <trkpt lat="47.10285" lon="6.20493">
        <ele>541</ele>
        <time>2022-06-05T02:17:15Z</time>
      </trkpt>
      <trkpt lat="47.10298" lon="6.2049">
        <ele>541</ele>
        <time>2022-06-05T02:17:26Z</time>
      </trkpt>
      <trkpt lat="47.10314" lon="6.2047">
        <ele>537</ele>
        <time>2022-06-05T02:17:42Z</time>
      </trkpt>
      <trkpt lat="47.10323" lon="6.20431">
        <ele>529</ele>
        <time>2022-06-05T02:18:05Z</time>
      </trkpt>
      <trkpt lat="47.10332" lon="6.20298">
        <ele>523</ele>
        <time>2022-06-05T02:19:18Z</time>
      </trkpt>
      <trkpt lat="47.10333" lon="6.20153">
        <ele>530</ele>
        <time>2022-06-05T02:20:37Z</time>
      </trkpt>
      <trkpt lat="47.10336" lon="6.201">
        <ele>534</ele>
        <time>2022-06-05T02:21:06Z</time>
      </trkpt>
      <trkpt lat="47.10322" lon="6.20038">
        <ele>528</ele>
        <time>2022-06-05T02:21:42Z</time>
      </trkpt>
      <trkpt lat="47.10331" lon="6.19991">
        <ele>530</ele>
        <time>2022-06-05T02:22:08Z</time>
      </trkpt>
      <trkpt lat="47.1034" lon="6.19977">
        <ele>531</ele>
        <time>2022-06-05T02:22:19Z</time>
      </trkpt>
      <trkpt lat="47.10355" lon="6.19978">
        <ele>532</ele>
        <time>2022-06-05T02:22:31Z</time>
      </trkpt>
      <trkpt lat="47.10377" lon="6.19978">
        <ele>534</ele>
        <time>2022-06-05T02:22:48Z</time>
      </trkpt>
      <trkpt lat="47.10395" lon="6.19982">
        <ele>537</ele>
        <time>2022-06-05T02:23:03Z</time>
      </trkpt>
      <trkpt lat="47.10409" lon="6.19989">
        <ele>539</ele>
        <time>2022-06-05T02:23:15Z</time>
      </trkpt>
      <trkpt lat="47.10436" lon="6.20004">
        <ele>542</ele>
        <time>2022-06-05T02:23:38Z</time>
      </trkpt>
      <trkpt lat="47.10453" lon="6.20012">
        <ele>542</ele>
        <time>2022-06-05T02:23:52Z</time>
      </trkpt>
      <trkpt lat="47.10472" lon="6.20019">
        <ele>543</ele>
        <time>2022-06-05T02:24:08Z</time>
      </trkpt>
      <trkpt lat="47.10491" lon="6.20027">
        <ele>544</ele>
        <time>2022-06-05T02:24:24Z</time>
      </trkpt>
      <trkpt lat="47.10517" lon="6.20042">
        <ele>546</ele>
        <time>2022-06-05T02:24:46Z</time>
      </trkpt>
      <trkpt lat="47.10529" lon="6.20045">
        <ele>547</ele>
        <time>2022-06-05T02:24:56Z</time>
      </trkpt>
      <trkpt lat="47.10556" lon="6.20037">
        <ele>545</ele>
        <time>2022-06-05T02:25:18Z</time>
      </trkpt>
      <trkpt lat="47.10574" lon="6.20031">
        <ele>544</ele>
        <time>2022-06-05T02:25:33Z</time>
      </trkpt>
      <trkpt lat="47.10585" lon="6.2002">
        <ele>542</ele>
        <time>2022-06-05T02:25:43Z</time>
      </trkpt>
      <trkpt lat="47.106" lon="6.2">
        <ele>541</ele>
        <time>2022-06-05T02:26:00Z</time>
      </trkpt>
      <trkpt lat="47.10614" lon="6.19989">
        <ele>541</ele>
        <time>2022-06-05T02:26:12Z</time>
      </trkpt>
      <trkpt lat="47.10603" lon="6.19976">
        <ele>539</ele>
        <time>2022-06-05T02:26:24Z</time>
      </trkpt>
      <trkpt lat="47.10599" lon="6.19959">
        <ele>536</ele>
        <time>2022-06-05T02:26:34Z</time>
      </trkpt>
      <trkpt lat="47.10576" lon="6.19977">
        <ele>536</ele>
        <time>2022-06-05T02:26:54Z</time>
      </trkpt>
      <trkpt lat="47.10555" lon="6.19969">
        <ele>535</ele>
        <time>2022-06-05T02:27:12Z</time>
      </trkpt>
      <trkpt lat="47.10538" lon="6.19947">
        <ele>531</ele>
        <time>2022-06-05T02:27:30Z</time>
      </trkpt>
      <trkpt lat="47.10513" lon="6.199">
        <ele>524</ele>
        <time>2022-06-05T02:28:03Z</time>
      </trkpt>
      <trkpt lat="47.10487" lon="6.19873">
        <ele>519</ele>
        <time>2022-06-05T02:28:28Z</time>
      </trkpt>
      <trkpt lat="47.10466" lon="6.19849">
        <ele>516</ele>
        <time>2022-06-05T02:28:49Z</time>
      </trkpt>
      <trkpt lat="47.10455" lon="6.19829">
        <ele>512</ele>
        <time>2022-06-05T02:29:03Z</time>
      </trkpt>
      <trkpt lat="47.10464" lon="6.19818">
        <ele>512</ele>
        <time>2022-06-05T02:29:13Z</time>
      </trkpt>
      <trkpt lat="47.10485" lon="6.19823">
        <ele>513</ele>
        <time>2022-06-05T02:29:30Z</time>
      </trkpt>
      <trkpt lat="47.10502" lon="6.19822">
        <ele>514</ele>
        <time>2022-06-05T02:29:43Z</time>
      </trkpt>
      <trkpt lat="47.10506" lon="6.19813">
        <ele>515</ele>
        <time>2022-06-05T02:29:49Z</time>
      </trkpt>
      <trkpt lat="47.10474" lon="6.19754">
        <ele>509</ele>
        <time>2022-06-05T02:30:30Z</time>
      </trkpt>
      <trkpt lat="47.10404" lon="6.19692">
        <ele>495</ele>
        <time>2022-06-05T02:31:36Z</time>
      </trkpt>
      <trkpt lat="47.10361" lon="6.19647">
        <ele>488</ele>
        <time>2022-06-05T02:32:18Z</time>
      </trkpt>
      <trkpt lat="47.10332" lon="6.19627">
        <ele>483</ele>
        <time>2022-06-05T02:32:44Z</time>
      </trkpt>
      <trkpt lat="47.10299" lon="6.19615">
        <ele>479</ele>
        <time>2022-06-05T02:33:11Z</time>
      </trkpt>
      <trkpt lat="47.10232" lon="6.19602">
        <ele>465</ele>
        <time>2022-06-05T02:34:05Z</time>
      </trkpt>
      <trkpt lat="47.10214" lon="6.19592">
        <ele>461</ele>
        <time>2022-06-05T02:34:21Z</time>
      </trkpt>
      <trkpt lat="47.102" lon="6.19586">
        <ele>457</ele>
        <time>2022-06-05T02:34:33Z</time>
      </trkpt>
      <trkpt lat="47.10181" lon="6.19582">
        <ele>454</ele>
        <time>2022-06-05T02:34:48Z</time>
      </trkpt>
      <trkpt lat="47.10082" lon="6.19578">
        <ele>442</ele>
        <time>2022-06-05T02:36:07Z</time>
      </trkpt>
      <trkpt lat="47.10066" lon="6.19583">
        <ele>440</ele>
        <time>2022-06-05T02:36:20Z</time>
      </trkpt>
      <trkpt lat="47.10066" lon="6.19589">
        <ele>440</ele>
        <time>2022-06-05T02:36:24Z</time>
      </trkpt>
      <trkpt lat="47.10064" lon="6.19601">
        <ele>439</ele>
        <time>2022-06-05T02:36:30Z</time>
      </trkpt>
      <trkpt lat="47.10058" lon="6.19605">
        <ele>439</ele>
        <time>2022-06-05T02:36:36Z</time>
      </trkpt>
      <trkpt lat="47.1002" lon="6.19605">
        <ele>434</ele>
        <time>2022-06-05T02:37:06Z</time>
      </trkpt>
      <trkpt lat="47.10005" lon="6.19616">
        <ele>430</ele>
        <time>2022-06-05T02:37:20Z</time>
      </trkpt>
      <trkpt lat="47.09987" lon="6.1964">
        <ele>425</ele>
        <time>2022-06-05T02:37:39Z</time>
      </trkpt>
      <trkpt lat="47.09976" lon="6.19651">
        <ele>422</ele>
        <time>2022-06-05T02:37:50Z</time>
      </trkpt>
      <trkpt lat="47.09964" lon="6.19656">
        <ele>420</ele>
        <time>2022-06-05T02:38:00Z</time>
      </trkpt>
      <trkpt lat="47.09946" lon="6.19656">
        <ele>419</ele>
        <time>2022-06-05T02:38:14Z</time>
      </trkpt>
      <trkpt lat="47.09881" lon="6.19648">
        <ele>415</ele>
        <time>2022-06-05T02:39:06Z</time>
      </trkpt>
      <trkpt lat="47.09801" lon="6.19635">
        <ele>408</ele>
        <time>2022-06-05T02:40:11Z</time>
      </trkpt>
      <trkpt lat="47.09786" lon="6.19631">
        <ele>407</ele>
        <time>2022-06-05T02:40:23Z</time>
      </trkpt>
      <trkpt lat="47.09776" lon="6.19627">
        <ele>406</ele>
        <time>2022-06-05T02:40:31Z</time>
      </trkpt>
      <trkpt lat="47.09767" lon="6.19621">
        <ele>405</ele>
        <time>2022-06-05T02:40:39Z</time>
      </trkpt>
      <trkpt lat="47.09751" lon="6.19609">
        <ele>404</ele>
        <time>2022-06-05T02:40:54Z</time>
      </trkpt>
      <trkpt lat="47.09741" lon="6.19601">
        <ele>404</ele>
        <time>2022-06-05T02:41:03Z</time>
      </trkpt>
      <trkpt lat="47.09731" lon="6.19592">
        <ele>403</ele>
        <time>2022-06-05T02:41:12Z</time>
      </trkpt>
      <trkpt lat="47.09708" lon="6.19577">
        <ele>401</ele>
        <time>2022-06-05T02:41:32Z</time>
      </trkpt>
      <trkpt lat="47.09697" lon="6.19572">
        <ele>401</ele>
        <time>2022-06-05T02:41:42Z</time>
      </trkpt>
      <trkpt lat="47.09684" lon="6.19569">
        <ele>399</ele>
        <time>2022-06-05T02:41:52Z</time>
      </trkpt>
      <trkpt lat="47.09671" lon="6.19565">
        <ele>398</ele>
        <time>2022-06-05T02:42:03Z</time>
      </trkpt>
      <trkpt lat="47.0965" lon="6.19556">
        <ele>399</ele>
        <time>2022-06-05T02:42:20Z</time>
      </trkpt>
      <trkpt lat="47.09634" lon="6.1955">
        <ele>399</ele>
        <time>2022-06-05T02:42:34Z</time>
      </trkpt>
      <trkpt lat="47.09621" lon="6.1955">
        <ele>398</ele>
        <time>2022-06-05T02:42:44Z</time>
      </trkpt>
      <trkpt lat="47.09608" lon="6.19551">
        <ele>398</ele>
        <time>2022-06-05T02:42:55Z</time>
      </trkpt>
      <trkpt lat="47.09593" lon="6.19551">
        <ele>397</ele>
        <time>2022-06-05T02:43:07Z</time>
      </trkpt>
      <trkpt lat="47.09572" lon="6.19549">
        <ele>396</ele>
        <time>2022-06-05T02:43:23Z</time>
      </trkpt>
      <trkpt lat="47.09566" lon="6.1955">
        <ele>395</ele>
        <time>2022-06-05T02:43:28Z</time>
      </trkpt>
      <trkpt lat="47.09561" lon="6.19553">
        <ele>394</ele>
        <time>2022-06-05T02:43:33Z</time>
      </trkpt>
      <trkpt lat="47.09557" lon="6.1956">
        <ele>392</ele>
        <time>2022-06-05T02:43:38Z</time>
      </trkpt>
      <trkpt lat="47.09553" lon="6.19569">
        <ele>390</ele>
        <time>2022-06-05T02:43:43Z</time>
      </trkpt>
      <trkpt lat="47.09551" lon="6.19575">
        <ele>389</ele>
        <time>2022-06-05T02:43:47Z</time>
      </trkpt>
      <trkpt lat="47.09546" lon="6.19581">
        <ele>388</ele>
        <time>2022-06-05T02:43:52Z</time>
      </trkpt>
      <trkpt lat="47.09541" lon="6.19584">
        <ele>387</ele>
        <time>2022-06-05T02:43:57Z</time>
      </trkpt>
      <trkpt lat="47.09531" lon="6.19583">
        <ele>387</ele>
        <time>2022-06-05T02:44:05Z</time>
      </trkpt>
      <trkpt lat="47.09506" lon="6.19579">
        <ele>387</ele>
        <time>2022-06-05T02:44:25Z</time>
      </trkpt>
      <trkpt lat="47.09496" lon="6.19577">
        <ele>387</ele>
        <time>2022-06-05T02:44:33Z</time>
      </trkpt>
      <trkpt lat="47.09487" lon="6.19576">
        <ele>387</ele>
        <time>2022-06-05T02:44:40Z</time>
      </trkpt>
      <trkpt lat="47.09476" lon="6.19573">
        <ele>387</ele>
        <time>2022-06-05T02:44:49Z</time>
      </trkpt>
      <trkpt lat="47.09457" lon="6.19567">
        <ele>388</ele>
        <time>2022-06-05T02:45:05Z</time>
      </trkpt>
      <trkpt lat="47.09433" lon="6.1956">
        <ele>387</ele>
        <time>2022-06-05T02:45:24Z</time>
      </trkpt>
      <trkpt lat="47.09367" lon="6.19537">
        <ele>382</ele>
        <time>2022-06-05T02:46:19Z</time>
      </trkpt>
      <trkpt lat="47.09353" lon="6.19531">
        <ele>381</ele>
        <time>2022-06-05T02:46:30Z</time>
      </trkpt>
      <trkpt lat="47.09341" lon="6.19527">
        <ele>379</ele>
        <time>2022-06-05T02:46:40Z</time>
      </trkpt>
      <trkpt lat="47.09319" lon="6.19519">
        <ele>377</ele>
        <time>2022-06-05T02:46:58Z</time>
      </trkpt>
      <trkpt lat="47.0931" lon="6.19515">
        <ele>376</ele>
        <time>2022-06-05T02:47:06Z</time>
      </trkpt>
      <trkpt lat="47.09286" lon="6.19509">
        <ele>374</ele>
        <time>2022-06-05T02:47:25Z</time>
      </trkpt>
      <trkpt lat="47.09277" lon="6.19505">
        <ele>373</ele>
        <time>2022-06-05T02:47:33Z</time>
      </trkpt>
      <trkpt lat="47.09269" lon="6.195">
        <ele>371</ele>
        <time>2022-06-05T02:47:40Z</time>
      </trkpt>
      <trkpt lat="47.09251" lon="6.19485">
        <ele>370</ele>
        <time>2022-06-05T02:47:56Z</time>
      </trkpt>
      <trkpt lat="47.09243" lon="6.19475">
        <ele>371</ele>
        <time>2022-06-05T02:48:05Z</time>
      </trkpt>
      <trkpt lat="47.09225" lon="6.19455">
        <ele>371</ele>
        <time>2022-06-05T02:48:23Z</time>
      </trkpt>
      <trkpt lat="47.09215" lon="6.19443">
        <ele>371</ele>
        <time>2022-06-05T02:48:33Z</time>
      </trkpt>
      <trkpt lat="47.09198" lon="6.19418">
        <ele>370</ele>
        <time>2022-06-05T02:48:53Z</time>
      </trkpt>
      <trkpt lat="47.09186" lon="6.19402">
        <ele>370</ele>
        <time>2022-06-05T02:49:06Z</time>
      </trkpt>
      <trkpt lat="47.09169" lon="6.19375">
        <ele>369</ele>
        <time>2022-06-05T02:49:26Z</time>
      </trkpt>
      <trkpt lat="47.09159" lon="6.1936">
        <ele>369</ele>
        <time>2022-06-05T02:49:37Z</time>
      </trkpt>
      <trkpt lat="47.09151" lon="6.1935">
        <ele>371</ele>
        <time>2022-06-05T02:49:46Z</time>
      </trkpt>
      <trkpt lat="47.09144" lon="6.19339">
        <ele>372</ele>
        <time>2022-06-05T02:49:54Z</time>
      </trkpt>
      <trkpt lat="47.09137" lon="6.19327">
        <ele>373</ele>
        <time>2022-06-05T02:50:02Z</time>
      </trkpt>
      <trkpt lat="47.09131" lon="6.19312">
        <ele>374</ele>
        <time>2022-06-05T02:50:12Z</time>
      </trkpt>
      <trkpt lat="47.09111" lon="6.19271">
        <ele>376</ele>
        <time>2022-06-05T02:50:39Z</time>
      </trkpt>
      <trkpt lat="47.09106" lon="6.19257">
        <ele>376</ele>
        <time>2022-06-05T02:50:48Z</time>
      </trkpt>
      <trkpt lat="47.09101" lon="6.19245">
        <ele>375</ele>
        <time>2022-06-05T02:50:56Z</time>
      </trkpt>
      <trkpt lat="47.09093" lon="6.19223">
        <ele>374</ele>
        <time>2022-06-05T02:51:09Z</time>
      </trkpt>
      <trkpt lat="47.09088" lon="6.19211">
        <ele>373</ele>
        <time>2022-06-05T02:51:17Z</time>
      </trkpt>
      <trkpt lat="47.09078" lon="6.19185">
        <ele>372</ele>
        <time>2022-06-05T02:51:33Z</time>
      </trkpt>
      <trkpt lat="47.09074" lon="6.19173">
        <ele>372</ele>
        <time>2022-06-05T02:51:41Z</time>
      </trkpt>
      <trkpt lat="47.09068" lon="6.19161">
        <ele>372</ele>
        <time>2022-06-05T02:51:49Z</time>
      </trkpt>
      <trkpt lat="47.09063" lon="6.19152">
        <ele>372</ele>
        <time>2022-06-05T02:51:55Z</time>
      </trkpt>
      <trkpt lat="47.09057" lon="6.19143">
        <ele>373</ele>
        <time>2022-06-05T02:52:02Z</time>
      </trkpt>
      <trkpt lat="47.0903" lon="6.19105">
        <ele>375</ele>
        <time>2022-06-05T02:52:32Z</time>
      </trkpt>
      <trkpt lat="47.09013" lon="6.1908">
        <ele>376</ele>
        <time>2022-06-05T02:52:51Z</time>
      </trkpt>
      <trkpt lat="47.09006" lon="6.19069">
        <ele>375</ele>
        <time>2022-06-05T02:52:59Z</time>
      </trkpt>
      <trkpt lat="47.08987" lon="6.19033">
        <ele>375</ele>
        <time>2022-06-05T02:53:24Z</time>
      </trkpt>
      <trkpt lat="47.08979" lon="6.19017">
        <ele>374</ele>
        <time>2022-06-05T02:53:35Z</time>
      </trkpt>
      <trkpt lat="47.08972" lon="6.19001">
        <ele>374</ele>
        <time>2022-06-05T02:53:45Z</time>
      </trkpt>
      <trkpt lat="47.08964" lon="6.18985">
        <ele>374</ele>
        <time>2022-06-05T02:53:56Z</time>
      </trkpt>
      <trkpt lat="47.08944" lon="6.1895">
        <ele>374</ele>
        <time>2022-06-05T02:54:21Z</time>
      </trkpt>
      <trkpt lat="47.08938" lon="6.18934">
        <ele>373</ele>
        <time>2022-06-05T02:54:31Z</time>
      </trkpt>
      <trkpt lat="47.08932" lon="6.18924">
        <ele>373</ele>
        <time>2022-06-05T02:54:38Z</time>
      </trkpt>
      <trkpt lat="47.08923" lon="6.1891">
        <ele>373</ele>
        <time>2022-06-05T02:54:49Z</time>
      </trkpt>
      <trkpt lat="47.0889" lon="6.18871">
        <ele>373</ele>
        <time>2022-06-05T02:55:23Z</time>
      </trkpt>
      <trkpt lat="47.08875" lon="6.18859">
        <ele>373</ele>
        <time>2022-06-05T02:55:37Z</time>
      </trkpt>
      <trkpt lat="47.08857" lon="6.18847">
        <ele>373</ele>
        <time>2022-06-05T02:55:52Z</time>
      </trkpt>
      <trkpt lat="47.08841" lon="6.18844">
        <ele>375</ele>
        <time>2022-06-05T02:56:05Z</time>
      </trkpt>
      <trkpt lat="47.08831" lon="6.18837">
        <ele>374</ele>
        <time>2022-06-05T02:56:14Z</time>
      </trkpt>
      <trkpt lat="47.08815" lon="6.18828">
        <ele>372</ele>
        <time>2022-06-05T02:56:28Z</time>
      </trkpt>
      <trkpt lat="47.08803" lon="6.18823">
        <ele>371</ele>
        <time>2022-06-05T02:56:38Z</time>
      </trkpt>
      <trkpt lat="47.08788" lon="6.18819">
        <ele>370</ele>
        <time>2022-06-05T02:56:50Z</time>
      </trkpt>
      <trkpt lat="47.08773" lon="6.18816">
        <ele>369</ele>
        <time>2022-06-05T02:57:02Z</time>
      </trkpt>
      <trkpt lat="47.08761" lon="6.18815">
        <ele>369</ele>
        <time>2022-06-05T02:57:12Z</time>
      </trkpt>
      <trkpt lat="47.08751" lon="6.18815">
        <ele>369</ele>
        <time>2022-06-05T02:57:20Z</time>
      </trkpt>
      <trkpt lat="47.08739" lon="6.18816">
        <ele>368</ele>
        <time>2022-06-05T02:57:30Z</time>
      </trkpt>
      <trkpt lat="47.08725" lon="6.18819">
        <ele>366</ele>
        <time>2022-06-05T02:57:41Z</time>
      </trkpt>
      <trkpt lat="47.08696" lon="6.18827">
        <ele>364</ele>
        <time>2022-06-05T02:58:05Z</time>
      </trkpt>
      <trkpt lat="47.08683" lon="6.18832">
        <ele>363</ele>
        <time>2022-06-05T02:58:15Z</time>
      </trkpt>
      <trkpt lat="47.08666" lon="6.1884">
        <ele>363</ele>
        <time>2022-06-05T02:58:30Z</time>
      </trkpt>
      <trkpt lat="47.08648" lon="6.1885">
        <ele>362</ele>
        <time>2022-06-05T02:58:45Z</time>
      </trkpt>
      <trkpt lat="47.08633" lon="6.18859">
        <ele>362</ele>
        <time>2022-06-05T02:58:58Z</time>
      </trkpt>
      <trkpt lat="47.08619" lon="6.18868">
        <ele>361</ele>
        <time>2022-06-05T02:59:10Z</time>
      </trkpt>
      <trkpt lat="47.08608" lon="6.18876">
        <ele>361</ele>
        <time>2022-06-05T02:59:20Z</time>
      </trkpt>
      <trkpt lat="47.08571" lon="6.18907">
        <ele>359</ele>
        <time>2022-06-05T02:59:54Z</time>
      </trkpt>
      <trkpt lat="47.08544" lon="6.18928">
        <ele>357</ele>
        <time>2022-06-05T03:00:19Z</time>
      </trkpt>
      <trkpt lat="47.08532" lon="6.18934">
        <ele>356</ele>
        <time>2022-06-05T03:00:29Z</time>
      </trkpt>
      <trkpt lat="47.08518" lon="6.1894">
        <ele>354</ele>
        <time>2022-06-05T03:00:41Z</time>
      </trkpt>
      <trkpt lat="47.08503" lon="6.18947">
        <ele>352</ele>
        <time>2022-06-05T03:00:53Z</time>
      </trkpt>
      <trkpt lat="47.08491" lon="6.18955">
        <ele>352</ele>
        <time>2022-06-05T03:01:04Z</time>
      </trkpt>
      <trkpt lat="47.08477" lon="6.18969">
        <ele>352</ele>
        <time>2022-06-05T03:01:17Z</time>
      </trkpt>
      <trkpt lat="47.08467" lon="6.18977">
        <ele>351</ele>
        <time>2022-06-05T03:01:27Z</time>
      </trkpt>
      <trkpt lat="47.08453" lon="6.18995">
        <ele>350</ele>
        <time>2022-06-05T03:01:41Z</time>
      </trkpt>
      <trkpt lat="47.08444" lon="6.19001">
        <ele>349</ele>
        <time>2022-06-05T03:01:49Z</time>
      </trkpt>
      <trkpt lat="47.08435" lon="6.19008">
        <ele>348</ele>
        <time>2022-06-05T03:01:58Z</time>
      </trkpt>
      <trkpt lat="47.08426" lon="6.19012">
        <ele>346</ele>
        <time>2022-06-05T03:02:05Z</time>
      </trkpt>
      <trkpt lat="47.08417" lon="6.19018">
        <ele>344</ele>
        <time>2022-06-05T03:02:13Z</time>
      </trkpt>
      <trkpt lat="47.08399" lon="6.19032">
        <ele>345</ele>
        <time>2022-06-05T03:02:29Z</time>
      </trkpt>
      <trkpt lat="47.08392" lon="6.19035">
        <ele>345</ele>
        <time>2022-06-05T03:02:35Z</time>
      </trkpt>
      <trkpt lat="47.08386" lon="6.19038">
        <ele>345</ele>
        <time>2022-06-05T03:02:40Z</time>
      </trkpt>
      <trkpt lat="47.08379" lon="6.19039">
        <ele>345</ele>
        <time>2022-06-05T03:02:46Z</time>
      </trkpt>
      <trkpt lat="47.08362" lon="6.1904">
        <ele>344</ele>
        <time>2022-06-05T03:03:00Z</time>
      </trkpt>
      <trkpt lat="47.08359" lon="6.19051">
        <ele>345</ele>
        <time>2022-06-05T03:03:06Z</time>
      </trkpt>
      <trkpt lat="47.08358" lon="6.19059">
        <ele>345</ele>
        <time>2022-06-05T03:03:10Z</time>
      </trkpt>
      <trkpt lat="47.08342" lon="6.19079">
        <ele>346</ele>
        <time>2022-06-05T03:03:27Z</time>
      </trkpt>
      <trkpt lat="47.08332" lon="6.1909">
        <ele>345</ele>
        <time>2022-06-05T03:03:37Z</time>
      </trkpt>
      <trkpt lat="47.08323" lon="6.19101">
        <ele>346</ele>
        <time>2022-06-05T03:03:47Z</time>
      </trkpt>
      <trkpt lat="47.08317" lon="6.19113">
        <ele>347</ele>
        <time>2022-06-05T03:03:55Z</time>
      </trkpt>
      <trkpt lat="47.08311" lon="6.19123">
        <ele>348</ele>
        <time>2022-06-05T03:04:02Z</time>
      </trkpt>
      <trkpt lat="47.08303" lon="6.19142">
        <ele>349</ele>
        <time>2022-06-05T03:04:14Z</time>
      </trkpt>
      <trkpt lat="47.08298" lon="6.19156">
        <ele>351</ele>
        <time>2022-06-05T03:04:23Z</time>
      </trkpt>
      <trkpt lat="47.08284" lon="6.1918">
        <ele>353</ele>
        <time>2022-06-05T03:04:40Z</time>
      </trkpt>
      <trkpt lat="47.08281" lon="6.19184">
        <ele>354</ele>
        <time>2022-06-05T03:04:43Z</time>
      </trkpt>
      <trkpt lat="47.08277" lon="6.19192">
        <ele>355</ele>
        <time>2022-06-05T03:04:49Z</time>
      </trkpt>
      <trkpt lat="47.08251" lon="6.19207">
        <ele>357</ele>
        <time>2022-06-05T03:05:11Z</time>
      </trkpt>
      <trkpt lat="47.08243" lon="6.19213">
        <ele>358</ele>
        <time>2022-06-05T03:05:18Z</time>
      </trkpt>
      <trkpt lat="47.08234" lon="6.19222">
        <ele>359</ele>
        <time>2022-06-05T03:05:27Z</time>
      </trkpt>
      <trkpt lat="47.08225" lon="6.1923">
        <ele>360</ele>
        <time>2022-06-05T03:05:36Z</time>
      </trkpt>
      <trkpt lat="47.08212" lon="6.19249">
        <ele>362</ele>
        <time>2022-06-05T03:05:50Z</time>
      </trkpt>
    </trkseg>
  </trk>
</gpx>